sensor_id;sensor_type;location;lat;lon;timestamp;pressure;altitude;pressure_sealevel;temperature;humidity
74529;BME280;63009;52.584;5.932;2024-03-23T00:53:33;49933.75;;;-144.39;75.48
74529;BME280;63009;52.584;5.932;2024-03-23T00:55:59;49933.75;;;-144.39;75.07
74529;BME280;63009;52.584;5.932;2024-03-23T00:58:24;49993.91;;;-144.39;75.40
74529;BME280;63009;52.584;5.932;2024-03-23T01:00:50;49969.84;;;-144.39;75.32
74529;BME280;63009;52.584;5.932;2024-03-23T01:03:15;49935.75;;;-144.39;75.35
74529;BME280;63009;52.584;5.932;2024-03-23T01:05:41;49953.81;;;-144.39;75.36
74529;BME280;63009;52.584;5.932;2024-03-23T01:08:06;49899.66;;;-144.39;75.36
74529;BME280;63009;52.584;5.932;2024-03-23T01:10:32;49951.81;;;-144.39;75.19
74529;BME280;63009;52.584;5.932;2024-03-23T01:12:57;49943.78;;;-144.39;75.48
74529;BME280;63009;52.584;5.932;2024-03-23T01:15:23;49947.78;;;-144.39;75.91
74529;BME280;63009;52.584;5.932;2024-03-23T01:17:48;49959.81;;;-144.39;75.67
74529;BME280;63009;52.584;5.932;2024-03-23T01:20:14;49955.81;;;-144.39;75.71
74529;BME280;63009;52.584;5.932;2024-03-23T01:22:39;49949.78;;;-144.39;75.69
74529;BME280;63009;52.584;5.932;2024-03-23T01:25:05;49973.88;;;-144.39;75.76
74529;BME280;63009;52.584;5.932;2024-03-23T01:27:30;49919.72;;;-144.39;75.89
74529;BME280;63009;52.584;5.932;2024-03-23T01:29:56;49911.69;;;-144.39;75.34
74529;BME280;63009;52.584;5.932;2024-03-23T01:32:21;49951.81;;;-144.39;75.76
74529;BME280;63009;52.584;5.932;2024-03-23T01:34:47;49939.78;;;-144.39;75.52
74529;BME280;63009;52.584;5.932;2024-03-23T01:37:12;49983.91;;;-144.39;75.41
74529;BME280;63009;52.584;5.932;2024-03-23T01:39:37;49903.66;;;-144.39;75.35
74529;BME280;63009;52.584;5.932;2024-03-23T01:42:03;49925.72;;;-144.39;75.45
74529;BME280;63009;52.584;5.932;2024-03-23T01:44:29;49991.91;;;-144.39;75.32
74529;BME280;63009;52.584;5.932;2024-03-23T01:46:54;49971.84;;;-144.39;75.28
74529;BME280;63009;52.584;5.932;2024-03-23T01:49:20;49935.75;;;-144.39;75.73
74529;BME280;63009;52.584;5.932;2024-03-23T01:51:46;49939.78;;;-144.39;75.62
74529;BME280;63009;52.584;5.932;2024-03-23T01:54:11;49933.75;;;-144.39;75.90
74529;BME280;63009;52.584;5.932;2024-03-23T01:56:37;49949.78;;;-144.39;75.70
74529;BME280;63009;52.584;5.932;2024-03-23T01:59:03;49911.69;;;-144.39;75.85
74529;BME280;63009;52.584;5.932;2024-03-23T02:01:29;49935.75;;;-144.39;75.79
74529;BME280;63009;52.584;5.932;2024-03-23T02:03:55;49929.75;;;-144.39;75.91
74529;BME280;63009;52.584;5.932;2024-03-23T02:06:21;49971.84;;;-144.39;75.63
74529;BME280;63009;52.584;5.932;2024-03-23T02:08:47;49969.84;;;-144.39;75.68
74529;BME280;63009;52.584;5.932;2024-03-23T02:11:13;49925.72;;;-144.39;75.21
74529;BME280;63009;52.584;5.932;2024-03-23T02:13:39;49941.78;;;-144.39;75.09
74529;BME280;63009;52.584;5.932;2024-03-23T02:16:05;49955.81;;;-144.39;75.13
74529;BME280;63009;52.584;5.932;2024-03-23T02:18:31;49955.81;;;-144.39;75.10
74529;BME280;63009;52.584;5.932;2024-03-23T02:20:56;49943.78;;;-144.39;74.91
74529;BME280;63009;52.584;5.932;2024-03-23T02:23:22;49911.69;;;-144.39;74.67
74529;BME280;63009;52.584;5.932;2024-03-23T02:25:47;49953.81;;;-144.39;75.14
74529;BME280;63009;52.584;5.932;2024-03-23T02:28:12;49951.81;;;-144.39;75.32
74529;BME280;63009;52.584;5.932;2024-03-23T02:30:38;49933.75;;;-144.39;75.13
74529;BME280;63009;52.584;5.932;2024-03-23T02:33:04;49907.69;;;-144.39;74.81
74529;BME280;63009;52.584;5.932;2024-03-23T02:35:29;49955.81;;;-144.39;74.63
74529;BME280;63009;52.584;5.932;2024-03-23T02:37:55;49937.75;;;-144.39;74.49
74529;BME280;63009;52.584;5.932;2024-03-23T02:40:23;49933.75;;;-144.39;74.34
74529;BME280;63009;52.584;5.932;2024-03-23T02:42:48;49949.78;;;-144.39;74.06
74529;BME280;63009;52.584;5.932;2024-03-23T02:45:14;49927.75;;;-144.39;74.40
74529;BME280;63009;52.584;5.932;2024-03-23T02:47:39;49959.81;;;-144.39;74.47
74529;BME280;63009;52.584;5.932;2024-03-23T02:50:05;49919.72;;;-144.39;74.51
74529;BME280;63009;52.584;5.932;2024-03-23T02:52:31;49931.75;;;-144.39;74.29
74529;BME280;63009;52.584;5.932;2024-03-23T02:54:56;49949.78;;;-144.39;74.18
74529;BME280;63009;52.584;5.932;2024-03-23T02:57:22;49949.78;;;-144.39;74.63
74529;BME280;63009;52.584;5.932;2024-03-23T02:59:47;49989.91;;;-144.39;74.65
74529;BME280;63009;52.584;5.932;2024-03-23T03:02:13;49931.75;;;-144.39;74.90
74529;BME280;63009;52.584;5.932;2024-03-23T03:04:39;49991.91;;;-144.39;74.51
74529;BME280;63009;52.584;5.932;2024-03-23T03:07:04;49963.84;;;-144.39;74.13
74529;BME280;63009;52.584;5.932;2024-03-23T03:09:29;49975.88;;;-144.39;73.69
74529;BME280;63009;52.584;5.932;2024-03-23T03:11:55;49969.84;;;-144.39;73.09
74529;BME280;63009;52.584;5.932;2024-03-23T03:14:20;49959.81;;;-144.39;72.95
74529;BME280;63009;52.584;5.932;2024-03-23T03:16:46;49945.78;;;-144.39;73.12
74529;BME280;63009;52.584;5.932;2024-03-23T03:19:11;49927.75;;;-144.39;73.14
74529;BME280;63009;52.584;5.932;2024-03-23T03:21:37;49937.75;;;-144.39;72.77
74529;BME280;63009;52.584;5.932;2024-03-23T03:24:03;49991.91;;;-144.39;73.09
74529;BME280;63009;52.584;5.932;2024-03-23T03:26:28;49923.72;;;-144.39;73.03
74529;BME280;63009;52.584;5.932;2024-03-23T03:28:54;49961.84;;;-144.39;72.95
74529;BME280;63009;52.584;5.932;2024-03-23T03:31:19;49955.81;;;-144.39;72.99
74529;BME280;63009;52.584;5.932;2024-03-23T03:33:45;49975.88;;;-144.39;73.03
74529;BME280;63009;52.584;5.932;2024-03-23T03:36:11;49949.78;;;-144.39;72.87
74529;BME280;63009;52.584;5.932;2024-03-23T03:38:36;49947.78;;;-144.39;73.07
74529;BME280;63009;52.584;5.932;2024-03-23T03:41:02;49935.75;;;-144.39;72.86
74529;BME280;63009;52.584;5.932;2024-03-23T03:43:28;49935.75;;;-144.39;73.07
74529;BME280;63009;52.584;5.932;2024-03-23T03:45:54;49941.78;;;-144.39;72.86
74529;BME280;63009;52.584;5.932;2024-03-23T03:48:20;49891.63;;;-144.39;72.95
74529;BME280;63009;52.584;5.932;2024-03-23T03:50:45;49953.81;;;-144.39;72.84
74529;BME280;63009;52.584;5.932;2024-03-23T03:53:10;49967.84;;;-144.39;72.86
74529;BME280;63009;52.584;5.932;2024-03-23T03:55:36;49927.75;;;-144.39;72.74
74529;BME280;63009;52.584;5.932;2024-03-23T03:58:02;49957.81;;;-144.39;72.68
74529;BME280;63009;52.584;5.932;2024-03-23T04:00:27;49975.88;;;-144.39;72.52
74529;BME280;63009;52.584;5.932;2024-03-23T04:02:52;49951.81;;;-144.39;72.71
74529;BME280;63009;52.584;5.932;2024-03-23T04:05:18;49951.81;;;-144.39;71.99
74529;BME280;63009;52.584;5.932;2024-03-23T04:07:45;49955.81;;;-144.39;72.50
74529;BME280;63009;52.584;5.932;2024-03-23T04:10:10;49975.88;;;-144.39;72.30
74529;BME280;63009;52.584;5.932;2024-03-23T04:12:36;49947.78;;;-144.39;72.34
74529;BME280;63009;52.584;5.932;2024-03-23T04:15:01;49951.81;;;-144.39;72.22
74529;BME280;63009;52.584;5.932;2024-03-23T04:17:29;49931.75;;;-144.39;71.89
74529;BME280;63009;52.584;5.932;2024-03-23T04:19:57;49941.78;;;-144.39;71.86
74529;BME280;63009;52.584;5.932;2024-03-23T04:22:25;49911.69;;;-144.39;71.54
74529;BME280;63009;52.584;5.932;2024-03-23T04:24:55;49953.81;;;-144.39;71.48
74529;BME280;63009;52.584;5.932;2024-03-23T04:27:24;49957.81;;;-144.39;71.55
74529;BME280;63009;52.584;5.932;2024-03-23T04:29:52;49957.81;;;-144.39;71.11
74529;BME280;63009;52.584;5.932;2024-03-23T04:32:20;49949.78;;;-144.39;71.24
74529;BME280;63009;52.584;5.932;2024-03-23T04:34:46;49945.78;;;-144.39;71.32
74529;BME280;63009;52.584;5.932;2024-03-23T04:37:11;49947.78;;;-144.39;71.52
74529;BME280;63009;52.584;5.932;2024-03-23T04:39:37;49971.84;;;-144.39;71.40
74529;BME280;63009;52.584;5.932;2024-03-23T04:42:03;49971.84;;;-144.39;71.23
74529;BME280;63009;52.584;5.932;2024-03-23T04:44:29;49935.75;;;-144.39;71.13
74529;BME280;63009;52.584;5.932;2024-03-23T04:46:54;49931.75;;;-144.39;71.15
74529;BME280;63009;52.584;5.932;2024-03-23T04:49:20;49959.81;;;-144.39;71.32
74529;BME280;63009;52.584;5.932;2024-03-23T04:51:45;49939.78;;;-144.39;71.45
74529;BME280;63009;52.584;5.932;2024-03-23T04:54:12;49957.81;;;-144.39;71.49
74529;BME280;63009;52.584;5.932;2024-03-23T04:56:37;49935.75;;;-144.39;71.81
74529;BME280;63009;52.584;5.932;2024-03-23T04:59:03;49943.78;;;-144.39;71.77
74529;BME280;63009;52.584;5.932;2024-03-23T05:01:30;49951.81;;;-144.39;72.30
74529;BME280;63009;52.584;5.932;2024-03-23T05:03:56;49933.75;;;-144.39;72.12
74529;BME280;63009;52.584;5.932;2024-03-23T05:06:22;49963.84;;;-144.39;72.21
74529;BME280;63009;52.584;5.932;2024-03-23T05:08:47;49983.91;;;-144.39;72.07
74529;BME280;63009;52.584;5.932;2024-03-23T05:11:13;49967.84;;;-144.39;72.32
74529;BME280;63009;52.584;5.932;2024-03-23T05:13:38;49981.88;;;-144.39;72.33
74529;BME280;63009;52.584;5.932;2024-03-23T05:16:04;49989.91;;;-144.39;72.48
74529;BME280;63009;52.584;5.932;2024-03-23T05:18:29;49943.78;;;-144.39;72.50
74529;BME280;63009;52.584;5.932;2024-03-23T05:20:58;49969.84;;;-144.39;72.78
74529;BME280;63009;52.584;5.932;2024-03-23T05:23:25;49953.81;;;-144.39;73.21
74529;BME280;63009;52.584;5.932;2024-03-23T05:25:50;49939.78;;;-144.39;73.45
74529;BME280;63009;52.584;5.932;2024-03-23T05:28:17;49941.78;;;-144.39;73.56
74529;BME280;63009;52.584;5.932;2024-03-23T05:30:42;49989.91;;;-144.39;73.89
74529;BME280;63009;52.584;5.932;2024-03-23T05:33:08;49955.81;;;-144.39;74.02
74529;BME280;63009;52.584;5.932;2024-03-23T05:35:33;49959.81;;;-144.39;74.03
74529;BME280;63009;52.584;5.932;2024-03-23T05:37:59;49945.78;;;-144.39;73.93
74529;BME280;63009;52.584;5.932;2024-03-23T05:40:26;49955.81;;;-144.39;74.02
74529;BME280;63009;52.584;5.932;2024-03-23T05:42:51;49987.91;;;-144.39;74.65
74529;BME280;63009;52.584;5.932;2024-03-23T05:45:21;49941.78;;;-144.39;74.53
74529;BME280;63009;52.584;5.932;2024-03-23T05:47:48;49951.81;;;-144.39;74.17
74529;BME280;63009;52.584;5.932;2024-03-23T05:50:14;49927.75;;;-144.39;73.96
74529;BME280;63009;52.584;5.932;2024-03-23T05:52:39;49943.78;;;-144.39;74.12
74529;BME280;63009;52.584;5.932;2024-03-23T05:55:06;49953.81;;;-144.39;73.72
74529;BME280;63009;52.584;5.932;2024-03-23T05:57:31;49979.88;;;-144.39;73.58
74529;BME280;63009;52.584;5.932;2024-03-23T05:59:56;49983.91;;;-144.39;73.82
74529;BME280;63009;52.584;5.932;2024-03-23T06:02:22;49981.88;;;-144.39;74.41
74529;BME280;63009;52.584;5.932;2024-03-23T06:04:48;49943.78;;;-144.39;74.05
74529;BME280;63009;52.584;5.932;2024-03-23T06:07:13;49983.91;;;-144.39;74.13
74529;BME280;63009;52.584;5.932;2024-03-23T06:09:42;49935.75;;;-144.39;73.89
74529;BME280;63009;52.584;5.932;2024-03-23T06:12:07;49973.88;;;-144.39;73.29
74529;BME280;63009;52.584;5.932;2024-03-23T06:14:33;49945.78;;;-144.39;73.48
74529;BME280;63009;52.584;5.932;2024-03-23T06:16:59;49975.88;;;-144.39;73.76
74529;BME280;63009;52.584;5.932;2024-03-23T06:19:25;49937.75;;;-144.39;73.70
74529;BME280;63009;52.584;5.932;2024-03-23T06:21:54;49945.78;;;-144.39;73.54
74529;BME280;63009;52.584;5.932;2024-03-23T06:24:21;49945.78;;;-144.39;73.82
74529;BME280;63009;52.584;5.932;2024-03-23T06:26:47;49927.75;;;-144.39;73.71
74529;BME280;63009;52.584;5.932;2024-03-23T06:29:12;49935.75;;;-144.39;73.66
74529;BME280;63009;52.584;5.932;2024-03-23T06:31:38;49941.78;;;-144.39;73.50
74529;BME280;63009;52.584;5.932;2024-03-23T06:34:03;49933.75;;;-144.39;73.16
74529;BME280;63009;52.584;5.932;2024-03-23T06:36:28;49961.84;;;-144.39;73.34
74529;BME280;63009;52.584;5.932;2024-03-23T06:38:56;49927.75;;;-144.39;72.63
74529;BME280;63009;52.584;5.932;2024-03-23T06:41:22;49963.84;;;-144.39;72.41
74529;BME280;63009;52.584;5.932;2024-03-23T06:43:48;49957.81;;;-144.39;72.37
74529;BME280;63009;52.584;5.932;2024-03-23T06:46:13;49977.88;;;-144.39;72.33
74529;BME280;63009;52.584;5.932;2024-03-23T06:48:38;49947.78;;;-144.39;72.18
74529;BME280;63009;52.584;5.932;2024-03-23T06:51:04;49949.78;;;-144.39;71.91
74529;BME280;63009;52.584;5.932;2024-03-23T06:53:29;49979.88;;;-144.39;71.73
74529;BME280;63009;52.584;5.932;2024-03-23T06:55:55;49919.72;;;-144.39;71.62
74529;BME280;63009;52.584;5.932;2024-03-23T06:58:25;49985.91;;;-144.39;73.32
74529;BME280;63009;52.584;5.932;2024-03-23T07:00:50;49943.78;;;-144.39;73.37
74529;BME280;63009;52.584;5.932;2024-03-23T07:03:16;49959.81;;;-144.39;72.80
74529;BME280;63009;52.584;5.932;2024-03-23T07:05:42;49907.69;;;-144.39;72.80
74529;BME280;63009;52.584;5.932;2024-03-23T07:08:08;49949.78;;;-144.39;73.05
74529;BME280;63009;52.584;5.932;2024-03-23T07:10:33;49957.81;;;-144.39;73.20
74529;BME280;63009;52.584;5.932;2024-03-23T07:12:58;49935.75;;;-144.39;73.82
74529;BME280;63009;52.584;5.932;2024-03-23T07:15:24;49931.75;;;-144.39;73.39
74529;BME280;63009;52.584;5.932;2024-03-23T07:17:49;49979.88;;;-144.39;73.75
74529;BME280;63009;52.584;5.932;2024-03-23T07:20:15;49945.78;;;-144.39;73.46
74529;BME280;63009;52.584;5.932;2024-03-23T07:22:40;49959.81;;;-144.39;73.59
74529;BME280;63009;52.584;5.932;2024-03-23T07:25:06;49943.78;;;-144.39;73.65
74529;BME280;63009;52.584;5.932;2024-03-23T07:27:32;49979.88;;;-144.39;73.06
74529;BME280;63009;52.584;5.932;2024-03-23T07:29:57;49925.72;;;-144.39;72.95
74529;BME280;63009;52.584;5.932;2024-03-23T07:32:23;49955.81;;;-144.39;72.39
74529;BME280;63009;52.584;5.932;2024-03-23T07:34:48;49983.91;;;-144.39;72.65
74529;BME280;63009;52.584;5.932;2024-03-23T07:37:14;49921.72;;;-144.39;73.36
74529;BME280;63009;52.584;5.932;2024-03-23T07:39:40;49955.81;;;-144.39;74.48
74529;BME280;63009;52.584;5.932;2024-03-23T07:42:06;49997.94;;;-144.39;74.32
74529;BME280;63009;52.584;5.932;2024-03-23T07:44:31;49955.81;;;-144.39;73.48
74529;BME280;63009;52.584;5.932;2024-03-23T07:46:56;49939.78;;;-144.39;71.88
74529;BME280;63009;52.584;5.932;2024-03-23T07:49:22;49943.78;;;-144.39;70.19
74529;BME280;63009;52.584;5.932;2024-03-23T07:51:48;49945.78;;;-144.39;71.00
74529;BME280;63009;52.584;5.932;2024-03-23T07:54:14;49961.84;;;-144.39;71.13
74529;BME280;63009;52.584;5.932;2024-03-23T07:56:39;49935.75;;;-144.39;71.21
74529;BME280;63009;52.584;5.932;2024-03-23T07:59:04;49953.81;;;-144.39;72.35
74529;BME280;63009;52.584;5.932;2024-03-23T08:01:30;49973.88;;;-144.39;72.12
74529;BME280;63009;52.584;5.932;2024-03-23T08:03:55;49931.75;;;-144.39;72.62
74529;BME280;63009;52.584;5.932;2024-03-23T08:06:21;49969.84;;;-144.39;72.59
74529;BME280;63009;52.584;5.932;2024-03-23T08:08:48;49939.78;;;-144.39;72.48
74529;BME280;63009;52.584;5.932;2024-03-23T08:11:16;49965.84;;;-144.39;72.88
74529;BME280;63009;52.584;5.932;2024-03-23T08:13:42;49945.78;;;-144.39;72.35
74529;BME280;63009;52.584;5.932;2024-03-23T08:16:10;49951.81;;;-144.39;72.31
74529;BME280;63009;52.584;5.932;2024-03-23T08:18:35;49935.75;;;-144.39;73.45
74529;BME280;63009;52.584;5.932;2024-03-23T08:21:02;49923.72;;;-144.39;74.88
74529;BME280;63009;52.584;5.932;2024-03-23T08:23:29;49927.75;;;-144.39;72.02
74529;BME280;63009;52.584;5.932;2024-03-23T08:25:59;49949.78;;;-144.39;71.01
74529;BME280;63009;52.584;5.932;2024-03-23T08:28:25;49925.72;;;-144.39;70.87
74529;BME280;63009;52.584;5.932;2024-03-23T08:30:51;49949.78;;;-144.39;71.48
74529;BME280;63009;52.584;5.932;2024-03-23T08:33:16;49951.81;;;-144.39;68.08
74529;BME280;63009;52.584;5.932;2024-03-23T08:35:42;49935.75;;;-144.39;66.29
74529;BME280;63009;52.584;5.932;2024-03-23T08:38:07;49967.84;;;-144.39;66.49
74529;BME280;63009;52.584;5.932;2024-03-23T08:40:33;49925.72;;;-144.39;65.03
74529;BME280;63009;52.584;5.932;2024-03-23T08:42:58;49911.69;;;-144.39;64.43
74529;BME280;63009;52.584;5.932;2024-03-23T08:45:25;49937.75;;;-144.39;64.12
74529;BME280;63009;52.584;5.932;2024-03-23T08:47:50;49959.81;;;-144.39;63.86
74529;BME280;63009;52.584;5.932;2024-03-23T08:50:18;49911.69;;;-144.39;61.97
74529;BME280;63009;52.584;5.932;2024-03-23T08:52:51;49937.75;;;-144.39;61.59
74529;BME280;63009;52.584;5.932;2024-03-23T08:55:17;49943.78;;;-144.39;62.21
74529;BME280;63009;52.584;5.932;2024-03-23T08:57:42;49947.78;;;-144.39;59.53
74529;BME280;63009;52.584;5.932;2024-03-23T09:00:08;49941.78;;;-144.39;59.66
74529;BME280;63009;52.584;5.932;2024-03-23T09:02:34;49937.75;;;-144.39;58.83
74529;BME280;63009;52.584;5.932;2024-03-23T09:05:00;49981.88;;;-144.39;60.96
74529;BME280;63009;52.584;5.932;2024-03-23T09:07:30;49947.78;;;-144.39;61.08
74529;BME280;63009;52.584;5.932;2024-03-23T09:09:56;49949.78;;;-144.39;61.84
74529;BME280;63009;52.584;5.932;2024-03-23T09:12:21;49961.84;;;-144.39;62.42
74529;BME280;63009;52.584;5.932;2024-03-23T09:14:49;49939.78;;;-144.39;64.26
74529;BME280;63009;52.584;5.932;2024-03-23T09:17:14;49925.72;;;-144.39;66.02
74529;BME280;63009;52.584;5.932;2024-03-23T09:19:40;49959.81;;;-144.39;66.63
74529;BME280;63009;52.584;5.932;2024-03-23T09:22:05;49933.75;;;-144.39;67.05
74529;BME280;63009;52.584;5.932;2024-03-23T09:24:31;49951.81;;;-144.39;67.31
74529;BME280;63009;52.584;5.932;2024-03-23T09:26:57;49927.75;;;-144.39;68.36
74529;BME280;63009;52.584;5.932;2024-03-23T09:29:22;49923.72;;;-144.39;68.72
74529;BME280;63009;52.584;5.932;2024-03-23T09:31:48;49947.78;;;-144.39;69.92
74529;BME280;63009;52.584;5.932;2024-03-23T09:34:14;49953.81;;;-144.39;68.51
74529;BME280;63009;52.584;5.932;2024-03-23T09:36:43;49925.72;;;-144.39;66.75
74529;BME280;63009;52.584;5.932;2024-03-23T09:39:11;49931.75;;;-144.39;62.73
74529;BME280;63009;52.584;5.932;2024-03-23T09:41:39;49937.75;;;-144.39;63.07
74529;BME280;63009;52.584;5.932;2024-03-23T09:44:05;49915.69;;;-144.39;63.09
74529;BME280;63009;52.584;5.932;2024-03-23T09:46:30;49959.81;;;-144.39;63.07
74529;BME280;63009;52.584;5.932;2024-03-23T09:49:07;49915.69;;;-144.39;59.96
74529;BME280;63009;52.584;5.932;2024-03-23T09:51:35;49925.72;;;-144.39;57.27
74529;BME280;63009;52.584;5.932;2024-03-23T09:54:02;49951.81;;;-144.39;59.00
74529;BME280;63009;52.584;5.932;2024-03-23T09:56:30;49971.84;;;-144.39;61.57
74529;BME280;63009;52.584;5.932;2024-03-23T09:59:03;49939.78;;;-144.39;60.21
74529;BME280;63009;52.584;5.932;2024-03-23T10:01:32;49937.75;;;-144.39;59.60
74529;BME280;63009;52.584;5.932;2024-03-23T10:03:57;49975.88;;;-144.39;61.19
74529;BME280;63009;52.584;5.932;2024-03-23T10:06:25;49961.84;;;-144.39;56.41
74529;BME280;63009;52.584;5.932;2024-03-23T10:09:22;49919.72;;;-144.39;57.68
74529;BME280;63009;52.584;5.932;2024-03-23T10:12:08;49969.84;;;-144.39;58.20
74529;BME280;63009;52.584;5.932;2024-03-23T10:14:34;49913.69;;;-144.39;56.43
74529;BME280;63009;52.584;5.932;2024-03-23T10:19:41;49905.69;;;-144.39;57.28
74529;BME280;63009;52.584;5.932;2024-03-23T10:22:08;49929.75;;;-144.39;59.07
74529;BME280;63009;52.584;5.932;2024-03-23T10:24:37;49913.69;;;-144.39;59.46
74529;BME280;63009;52.584;5.932;2024-03-23T10:27:08;49937.75;;;-144.39;61.67
74529;BME280;63009;52.584;5.932;2024-03-23T10:29:33;49951.81;;;-144.39;57.21
74529;BME280;63009;52.584;5.932;2024-03-23T10:32:12;49951.81;;;-144.39;57.16
74529;BME280;63009;52.584;5.932;2024-03-23T10:34:38;49979.88;;;-144.39;59.20
74529;BME280;63009;52.584;5.932;2024-03-23T10:37:05;49933.75;;;-144.39;60.14
74529;BME280;63009;52.584;5.932;2024-03-23T10:39:35;49927.75;;;-144.39;57.52
74529;BME280;63009;52.584;5.932;2024-03-23T10:42:05;49951.81;;;-144.39;56.54
74529;BME280;63009;52.584;5.932;2024-03-23T10:44:43;49949.78;;;-144.39;55.22
74529;BME280;63009;52.584;5.932;2024-03-23T10:47:11;49933.75;;;-144.39;55.05
74529;BME280;63009;52.584;5.932;2024-03-23T10:49:37;49953.81;;;-144.39;53.56
74529;BME280;63009;52.584;5.932;2024-03-23T10:52:04;49971.84;;;-144.39;53.89
74529;BME280;63009;52.584;5.932;2024-03-23T10:54:30;49971.84;;;-144.39;55.43
74529;BME280;63009;52.584;5.932;2024-03-23T10:57:13;49927.75;;;-144.39;56.25
74529;BME280;63009;52.584;5.932;2024-03-23T10:59:44;49909.69;;;-144.39;53.09
74529;BME280;63009;52.584;5.932;2024-03-23T11:02:19;49927.75;;;-144.39;53.45
74529;BME280;63009;52.584;5.932;2024-03-23T11:04:45;49935.75;;;-144.39;52.89
74529;BME280;63009;52.584;5.932;2024-03-23T11:07:32;49943.78;;;-144.39;53.12
74529;BME280;63009;52.584;5.932;2024-03-23T11:09:59;49933.75;;;-144.39;51.05
74529;BME280;63009;52.584;5.932;2024-03-23T11:12:26;49899.66;;;-144.39;50.56
74529;BME280;63009;52.584;5.932;2024-03-23T11:15:03;49925.72;;;-144.39;51.05
74529;BME280;63009;52.584;5.932;2024-03-23T11:17:29;49949.78;;;-144.39;52.02
74529;BME280;63009;52.584;5.932;2024-03-23T11:20:04;49913.69;;;-144.39;52.32
74529;BME280;63009;52.584;5.932;2024-03-23T11:22:48;49935.75;;;-144.39;53.06
74529;BME280;63009;52.584;5.932;2024-03-23T11:25:21;49931.75;;;-144.39;54.71
74529;BME280;63009;52.584;5.932;2024-03-23T11:27:51;49915.69;;;-144.39;51.46
74529;BME280;63009;52.584;5.932;2024-03-23T11:30:27;49923.72;;;-144.39;51.27
74529;BME280;63009;52.584;5.932;2024-03-23T11:32:58;49927.75;;;-144.39;50.58
74529;BME280;63009;52.584;5.932;2024-03-23T11:35:27;49923.72;;;-144.39;50.42
74529;BME280;63009;52.584;5.932;2024-03-23T11:38:15;49931.75;;;-144.39;54.14
74529;BME280;63009;52.584;5.932;2024-03-23T11:40:44;49971.84;;;-144.39;58.51
74529;BME280;63009;52.584;5.932;2024-03-23T11:43:14;49963.84;;;-144.39;58.51
74529;BME280;63009;52.584;5.932;2024-03-23T11:45:48;49931.75;;;-144.39;59.75
74529;BME280;63009;52.584;5.932;2024-03-23T11:48:19;49913.69;;;-144.39;62.27
74529;BME280;63009;52.584;5.932;2024-03-23T11:50:48;49929.75;;;-144.39;61.85
74529;BME280;63009;52.584;5.932;2024-03-23T11:56:00;49917.72;;;-144.39;63.43
74529;BME280;63009;52.584;5.932;2024-03-23T11:58:28;49957.81;;;-144.39;64.95
74529;BME280;63009;52.584;5.932;2024-03-23T12:01:02;49919.72;;;-144.39;65.37
74529;BME280;63009;52.584;5.932;2024-03-23T12:03:29;49993.91;;;-144.39;65.01
74529;BME280;63009;52.584;5.932;2024-03-23T12:05:57;49933.75;;;-144.39;61.44
74529;BME280;63009;52.584;5.932;2024-03-23T12:13:31;49991.91;;;-144.39;63.53
74529;BME280;63009;52.584;5.932;2024-03-23T12:16:16;49907.69;;;-144.39;63.73
74529;BME280;63009;52.584;5.932;2024-03-23T12:18:43;49947.78;;;-144.39;62.95
74529;BME280;63009;52.584;5.932;2024-03-23T12:21:11;49979.88;;;-144.39;61.33
74529;BME280;63009;52.584;5.932;2024-03-23T12:23:39;49905.69;;;-144.39;60.38
74529;BME280;63009;52.584;5.932;2024-03-23T12:26:05;49913.69;;;-144.39;58.35
74529;BME280;63009;52.584;5.932;2024-03-23T12:28:30;49939.78;;;-144.39;56.30
74529;BME280;63009;52.584;5.932;2024-03-23T12:30:56;49961.84;;;-144.39;56.46
74529;BME280;63009;52.584;5.932;2024-03-23T12:33:21;49937.75;;;-144.39;62.06
74529;BME280;63009;52.584;5.932;2024-03-23T12:35:47;49973.88;;;-144.39;60.98
74529;BME280;63009;52.584;5.932;2024-03-23T12:38:13;49951.81;;;-144.39;62.34
74529;BME280;63009;52.584;5.932;2024-03-23T12:40:38;49929.75;;;-144.39;61.63
74529;BME280;63009;52.584;5.932;2024-03-23T12:43:06;49931.75;;;-144.39;62.98
74529;BME280;63009;52.584;5.932;2024-03-23T12:45:34;49961.84;;;-144.39;62.29
74529;BME280;63009;52.584;5.932;2024-03-23T12:48:00;49935.75;;;-144.39;59.38
74529;BME280;63009;52.584;5.932;2024-03-23T12:50:25;49913.69;;;-144.39;58.68
74529;BME280;63009;52.584;5.932;2024-03-23T12:52:51;49951.81;;;-144.39;55.80
74529;BME280;63009;52.584;5.932;2024-03-23T12:55:16;49941.78;;;-144.39;56.17
74529;BME280;63009;52.584;5.932;2024-03-23T12:57:42;49935.75;;;-144.39;56.00
74529;BME280;63009;52.584;5.932;2024-03-23T13:00:07;49923.72;;;-144.39;55.39
74529;BME280;63009;52.584;5.932;2024-03-23T13:02:36;49977.88;;;-144.39;54.94
74529;BME280;63009;52.584;5.932;2024-03-23T13:05:02;49955.81;;;-144.39;56.61
74529;BME280;63009;52.584;5.932;2024-03-23T13:07:28;49907.69;;;-144.39;57.64
74529;BME280;63009;52.584;5.932;2024-03-23T13:09:53;49921.72;;;-144.39;58.33
74529;BME280;63009;52.584;5.932;2024-03-23T13:12:19;49959.81;;;-144.39;59.79
74529;BME280;63009;52.584;5.932;2024-03-23T13:14:45;49945.78;;;-144.39;63.27
74529;BME280;63009;52.584;5.932;2024-03-23T13:17:11;49945.78;;;-144.39;62.72
74529;BME280;63009;52.584;5.932;2024-03-23T13:19:36;49935.75;;;-144.39;62.45
74529;BME280;63009;52.584;5.932;2024-03-23T13:22:03;49937.75;;;-144.39;61.15
74529;BME280;63009;52.584;5.932;2024-03-23T13:24:34;49945.78;;;-144.39;59.85
74529;BME280;63009;52.584;5.932;2024-03-23T13:26:59;49977.88;;;-144.39;58.62
74529;BME280;63009;52.584;5.932;2024-03-23T13:29:25;49941.78;;;-144.39;59.55
74529;BME280;63009;52.584;5.932;2024-03-23T13:31:51;49935.75;;;-144.39;60.09
74529;BME280;63009;52.584;5.932;2024-03-23T13:34:17;49929.75;;;-144.39;60.90
74529;BME280;63009;52.584;5.932;2024-03-23T13:36:46;49931.75;;;-144.39;59.29
74529;BME280;63009;52.584;5.932;2024-03-23T13:39:13;49931.75;;;-144.39;58.96
74529;BME280;63009;52.584;5.932;2024-03-23T13:41:44;49963.84;;;-144.39;58.96